ADDS METAR Data INFO
IDs: Format: Raw Decoded Include TAF

Data at: 1354 UTC 17 Dec 2017

KORD 171351Z 06005KT 4SM BR OVC008 02/01 A3006 RMK AO2 SLP185 T00220006
KORD 171326Z 06005KT 4SM BR BKN008 BKN210 02/00 A3007 RMK AO2 T00170000
KORD 171251Z 04007KT 4SM BR FEW008 BKN210 02/00 A3005 RMK AO2 SLP181 T00220000
KORD 171213Z 03005KT 4SM BR FEW008 BKN210 02/00 A3005 RMK AO2 T00170000
KORD 171151Z 02006KT 4SM BR BKN210 02/00 A3006 RMK AO2 SLP185 I6000 T00170000 10017 21017 51003
KORD 171145Z 02007KT 4SM BR BKN210 01/00 A3006 RMK AO2
KORD 171135Z 01005KT 5SM BR BKN250 01/00 A3006 RMK AO2 T00110000
KORD 171051Z 01005KT 4SM BR BKN250 01/M01 A3006 RMK AO2 SLP187 T00061011
KORD 170951Z 02006KT 4SM BR SCT250 01/M01 A3005 RMK AO2 SLP181 T00061006
KORD 170851Z 03003KT 4SM BR SCT250 M02/M02 A3007 RMK AO2 SLP187 I1000 I3000 T10171022 53008
KORD 170823Z 36004KT 4SM BR SCT250 00/M01 A3007 RMK AO2 T00001011
KORD 170751Z 01004KT 6SM BR SCT250 00/M02 A3005 RMK AO2 SLP181 I1000 T00001017
KORD 170651Z 01005KT 6SM BR SCT250 00/M01 A3005 RMK AO2 SLP181 T00001011
KORD 170551Z 02005KT 8SM SCT250 00/M02 A3004 RMK AO2 SLP179 T00001017 10039 21028 400781028 50002
KORD 170451Z 36006KT 8SM FEW250 00/M01 A3006 RMK AO2 SLP186 T00001011
KORD 170351Z 35004KT 10SM FEW250 M02/M03 A3006 RMK AO2 SLP186 T10221033
KORD 170251Z 07003KT 10SM FEW250 01/M01 A3004 RMK AO2 SLP178 T00111011 51019
KORD 170151Z 04004KT 10SM FEW250 02/M02 A3003 RMK AO2 SLP175 T00171017
KORD 170051Z 07005KT 10SM FEW250 03/M02 A3001 RMK AO2 SLP167 T00331017
KORD 162351Z 07004KT 10SM CLR 03/M03 A2998 RMK AO2 SLP158 T00281033 10078 20028 51025
KORD 162251Z 00000KT 10SM FEW250 03/M04 A2996 RMK AO2 SLP152 T00331039
KORD 162151Z 00000KT 10SM FEW250 07/M03 A2993 RMK AO2 SLP139 T00721033
KORD 162051Z 22004KT 10SM FEW250 08/M03 A2991 RMK AO2 SLP131 T00781033 53007
KORD 161951Z 24005KT 10SM FEW250 08/M03 A2988 RMK AO2 SLP124 T00781033
KORD 161851Z COR 22004KT FEW250 07/M04 A2988 RMK AO2 SLP123 T00671039
KORD 161751Z 24007KT 10SM FEW250 06/M04 A2989 RMK AO2 SLP124 T00611039 10061 20011 50004
KORD 161651Z 23009KT 10SM FEW120 FEW150 05/M04 A2989 RMK AO2 SLP127 T00501039
KORD 161551Z 24009KT 10SM FEW120 FEW250 04/M04 A2990 RMK AO2 SLP129 T00391039
KORD 161451Z 23005KT 10SM FEW120 FEW250 02/M04 A2987 RMK AO2 SLP122 T00221044 53016
KORD 161351Z 20008KT 10SM SCT100 SCT250 01/M04 A2985 RMK AO2 SLP113 T00111044
KORD 161251Z 22009KT 10SM BKN100 02/M04 A2985 RMK AO2 SLP114 T00221044
KORD 161151Z 21008KT 10SM BKN100 02/M04 A2983 RMK AO2 SLP106 T00221044 10033 20022 55003
KORD 161051Z 22011KT 10SM SCT080 OVC100 03/M04 A2982 RMK AO2 SLP103 T00281044
KORD 160951Z 22013KT 10SM SCT090 OVC120 03/M05 A2982 RMK AO2 SLP104 T00281050
KORD 160851Z 22014KT 10SM OVC085 03/M06 A2983 RMK AO2 SLP109 T00281056 58010
KORD 160751Z 22014G21KT 10SM OVC100 03/M06 A2984 RMK AO2 SLP112 T00281061
KORD 160651Z 23011KT 10SM BKN055 OVC070 03/M06 A2986 RMK AO2 SLP118 T00331061
KORD 160551Z 23014G18KT 10SM BKN100 OVC110 03/M06 A2987 RMK AO2 SLP119 T00281061 10028 20006 400281061 56010
KORD 160451Z 22011G18KT 10SM SCT080 OVC095 03/M06 A2987 RMK AO2 SLP122 T00281061
KORD 160351Z 22010KT 10SM OVC065 02/M06 A2988 RMK AO2 SLP124 T00171061
KORD 160251Z 21008KT 10SM OVC050 01/M06 A2989 RMK AO2 SLP130 T00111061 58002